Nearby METAR Reports

 

KHIF - Hill Afb/Ogden, Utah, USA
Distance from station: ENE 6mi, 9km
Updated: Sun, 20-Aug-2017 4:58am MDT
Clear
Clear
 Wind from ESE
Wind: ESE 15 mph , 24 km/h
Temperature: 66°F , 19°C
Dew Point: 36°F , 2°C
Humidity: 32%
Barometer: 30.03 inHg , 1016.9 hPa
Clouds: Clear
Visibility: 10 miles , 16 km
2017/08/20 10:58 KHIF 201058Z AUTO 11013KT 10SM CLR 19/02 A3003 RMK AO2 SLP103 T01920023
KOGD - Ogden, Utah, USA
Distance from station: NNE 9mi, 14km
Updated: Sun, 20-Aug-2017 4:53am MDT
Clear
Clear
 Wind from SSE
Wind: SSE 6 mph , 9 km/h
Temperature: 66°F , 19°C
Dew Point: 37°F , 3°C
Humidity: 35%
Barometer: 30.00 inHg , 1015.9 hPa
Clouds: Clear
Visibility: 10 miles , 16 km
2017/08/20 10:53 KOGD 201053Z AUTO 15005KT 10SM CLR 19/03 A3000 RMK AO2 SLP093 T01940033 $
 
KSLC - Salt Lake City, Utah, USA
Distance from station: SSE 21mi, 34km
Updated: Sun, 20-Aug-2017 4:54am MDT
Few Clouds
Few Clouds
 Wind from ESE
Wind: ESE 7 mph , 11 km/h
Temperature: 72°F , 22°C
Dew Point: 43°F , 6°C
Humidity: 36%
Barometer: 29.99 inHg , 1015.6 hPa
Clouds: Few Clouds
Visibility: 10 miles , 16 km
Cloud details: Few Clouds 15000 ft
2017/08/20 10:54 KSLC 201054Z 12006KT 10SM FEW150 22/06 A2999 RMK AO2 SLP090 T02220061
KLGU - Logan, Utah, USA
Distance from station: NNE 50mi, 80km
Updated: Sun, 20-Aug-2017 4:51am MDT
Clear
Clear
 Wind from W
Wind: W 3 mph , 6 km/h
Temperature: 57°F , 14°C
Dew Point: 43°F , 6°C
Humidity: 59%
Barometer: 30.04 inHg , 1017.3 hPa
Clouds: Clear
Visibility: 10 miles , 16 km
2017/08/20 10:51 KLGU 201051Z AUTO 26003KT 10SM CLR 14/06 A3004 RMK AO2 SLP117 T01440061 $
 
K36U - Heber/Russ Mcdon, Utah, USA
Distance from station: SE 53mi, 85km
Updated: Sun, 20-Aug-2017 5:15am MDT
Clear
Clear
 Wind from ESE
Wind: ESE 3 mph , 6 km/h
Temperature: 52°F , 11°C
Dew Point: 43°F , 6°C
Humidity: 72%
Barometer: 30.12 inHg , 1020 hPa
Clouds: Clear
Visibility: 10 miles , 16 km
2017/08/20 11:15 K36U 201115Z AUTO 12003KT 10SM CLR 11/06 A3012 RMK AO2
KEVW - Evanston, Wyoming, USA
Distance from station: ENE 55mi, 89km
Updated: Sun, 20-Aug-2017 4:53am MDT
Clear
Clear
 Wind from SE
Wind: SE 6 mph , 9 km/h
Temperature: 57°F , 14°C
Dew Point: 36°F , 2°C
Humidity: 44%
Barometer: 30.22 inHg , 1023.4 hPa
Clouds: Clear
Visibility: 10 miles , 16 km
2017/08/20 10:53 KEVW 201053Z AUTO 14005KT 10SM CLR 14/02 A3022 RMK AO2 SLP128 T01440022 $
 
KPVU - Provo Muni, Utah, USA
Distance from station: SSE 62mi, 100km
Updated: Sun, 20-Aug-2017 4:56am MDT
Clear
Clear
 Wind from varies
Wind: varies 6 mph , 9 km/h
Temperature: 68°F , 20°C
Dew Point: 46°F , 8°C
Humidity: 46%
Barometer: 30.04 inHg , 1017.3 hPa
Clouds: Clear
Visibility: 10 miles , 16 km
2017/08/20 10:56 KPVU 201056Z AUTO VRB05KT 10SM CLR 20/08 A3004 RMK AO2 SLP109 T02000083
KDPG - Dugway Prvg Grou, Utah, USA
Distance from station: SW 75mi, 121km
Updated: Thu, 17-Aug-2017 12:57pm MDT
NOT Current
Few Clouds
Few Clouds
 Wind from NW
Wind: NW 8 mph , 13 km/h
Temperature: 86°F , 30°C
Dew Point: 36°F , 2°C
Humidity: 17%
Barometer: 30.14 inHg , 1020.7 hPa
Clouds: Few Clouds
Visibility: 10 miles , 16 km
Cloud details: Few Clouds 7000 ft
2017/08/17 18:57 KDPG 171857Z 31007KT 10SM FEW070 30/02 A3014 RMK SLP158 NOSPECI T02980019
 
KENV - Wendover (aut), Utah, USA
Distance from station: WSW 105mi, 169km
Updated: Sun, 20-Aug-2017 4:56am MDT
Clear
Clear
 Wind from WNW
Wind: WNW 3 mph , 6 km/h
Temperature: 72°F , 22°C
Dew Point: 32°F , 0°C
Humidity: 23%
Barometer: 30.00 inHg , 1015.9 hPa
Clouds: Clear
Visibility: 10 miles , 16 km
2017/08/20 10:56 KENV 201056Z AUTO 29003KT 10SM CLR 22/00 A3000 RMK AO2 SLP112 T02220000
KPUC - Price, Utah, USA
Distance from station: SE 123mi, 197km
Updated: Sun, 20-Aug-2017 4:53am MDT
Clear
Clear
 Wind from NE
Wind: NE 6 mph , 9 km/h
Temperature: 57°F , 14°C
Dew Point: 37°F , 3°C
Humidity: 48%
Barometer: 30.14 inHg , 1020.7 hPa
Clouds: Clear
Visibility: 10 miles , 16 km
2017/08/20 10:53 KPUC 201053Z AUTO 04005KT 10SM CLR 14/03 A3014 RMK AO2 SLP125 T01390033
 
KPIH - Pocatello, Idaho, USA
Distance from station: NNW 130mi, 208km
Updated: Sun, 20-Aug-2017 4:53am MDT
Clear
Clear
 Wind from SW
Wind: SW 10 mph , 17 km/h
Temperature: 64°F , 18°C
Dew Point: 32°F , 0°C
Humidity: 30%
Barometer: 30.07 inHg , 1018.3 hPa
Clouds: Clear
Visibility: 10 miles , 16 km
2017/08/20 10:53 KPIH 201053Z AUTO 23009KT 10SM CLR 18/00 A3007 RMK AO2 SLP124 T01830000
KBYI - Burley, Idaho, USA
Distance from station: NW 134mi, 216km
Updated: Sun, 20-Aug-2017 4:53am MDT
Clear
Clear
 Wind from SW
Wind: SW 6 mph , 9 km/h
Temperature: 54°F , 12°C
Dew Point: 39°F , 4°C
Humidity: 58%
Barometer: 30.04 inHg , 1017.3 hPa
Clouds: Clear
Visibility: 10 miles , 16 km
2017/08/20 10:53 KBYI 201053Z AUTO 22005KT 10SM CLR 12/04 A3004 RMK AO2 SLP130 T01220039
 
KVEL - Vernal, Utah, USA
Distance from station: ESE 140mi, 226km
Updated: Sun, 20-Aug-2017 4:53am MDT
Clear
Clear
 Wind from calm
Wind: Calm
Temperature: 57°F , 14°C
Dew Point: 41°F , 5°C
Humidity: 55%
Barometer: 30.11 inHg , 1019.6 hPa
Clouds: Clear
Visibility: 10 miles , 16 km
2017/08/20 10:53 KVEL 201053Z AUTO 00000KT 10SM CLR 14/05 A3011 RMK AO2 SLP128 T01440050
KBPI - Big Piney, Wyoming, USA
Distance from station: NE 145mi, 234km
Updated: Sun, 20-Aug-2017 4:53am MDT
Clear
Clear
 Wind from ENE
Wind: ENE 6 mph , 9 km/h
Temperature: 41°F , 5°C
Wind Chill: 37°F , 3°C
Dew Point: 28°F , -2°C
Humidity: 61%
Barometer: 30.22 inHg , 1023.4 hPa
Clouds: Clear
Visibility: 10 miles , 16 km
2017/08/20 10:53 KBPI 201053Z AUTO 07005KT 10SM CLR 05/M02 A3022 RMK AO2 SLP144 T00501022